createdAt,value
2019-04-24T00:00:31.461Z,50.90
2019-04-24T00:03:09.012Z,50.80
2019-04-24T00:08:25.503Z,50.80
2019-04-24T00:11:23.617Z,50.90
2019-04-24T00:13:52.686Z,50.90
2019-04-24T00:21:15.427Z,50.90
2019-04-24T00:24:01.852Z,50.90
2019-04-24T00:26:14.449Z,50.90
2019-04-24T00:28:58.236Z,50.90
2019-04-24T00:33:54.510Z,50.90
2019-04-24T00:39:06.336Z,50.90
2019-04-24T00:41:22.229Z,50.90
2019-04-24T00:46:33.323Z,50.80
2019-04-24T00:48:48.496Z,50.80
2019-04-24T00:51:25.770Z,50.80
2019-04-24T00:58:50.241Z,50.90
2019-04-24T01:01:54.098Z,50.90
2019-04-24T01:05:00.400Z,50.90
2019-04-24T01:07:36.742Z,50.90
2019-04-24T01:20:27.475Z,50.90
2019-04-24T01:22:58.832Z,50.90
2019-04-24T01:27:56.294Z,50.90
2019-04-24T01:35:40.765Z,50.90
2019-04-24T01:38:10.936Z,50.90
2019-04-24T01:40:51.477Z,50.90
2019-04-24T01:45:50.784Z,50.90
2019-04-24T01:48:26.314Z,50.90
2019-04-24T01:51:00.455Z,50.90
2019-04-24T01:53:14.547Z,50.90
2019-04-24T01:55:35.133Z,50.90
2019-04-24T01:58:17.405Z,50.90
2019-04-24T02:01:07.397Z,50.90
2019-04-24T02:03:13.808Z,50.90
2019-04-24T02:05:47.659Z,50.90
2019-04-24T02:08:35.882Z,50.90
2019-04-24T02:13:30.907Z,50.90
2019-04-24T02:16:00.988Z,50.90
2019-04-24T02:21:05.710Z,50.90
2019-04-24T02:23:33.008Z,50.90
2019-04-24T02:26:12.530Z,50.90
2019-04-24T02:29:20.845Z,50.90
2019-04-24T02:45:13.504Z,51.00
2019-04-24T02:47:52.364Z,50.90
2019-04-24T02:52:46.023Z,50.90
2019-04-24T02:57:47.255Z,50.90
2019-04-24T03:00:11.073Z,50.90
2019-04-24T03:03:05.559Z,50.90
2019-04-24T03:05:40.328Z,50.90
2019-04-24T03:08:12.271Z,50.90
2019-04-24T03:15:59.617Z,50.90
2019-04-24T03:18:26.555Z,50.90
2019-04-24T03:23:32.408Z,50.90
2019-04-24T03:28:15.299Z,50.90
2019-04-24T03:31:18.943Z,50.90
2019-04-24T03:41:36.581Z,50.90
2019-04-24T03:45:55.823Z,50.90
2019-04-24T03:59:13.398Z,50.90
2019-04-24T04:02:17.651Z,50.90
2019-04-24T04:04:24.246Z,51.50
2019-04-24T04:07:02.108Z,50.90
2019-04-24T04:09:25.728Z,50.90
2019-04-24T04:11:54.928Z,51.00
2019-04-24T04:14:22.947Z,50.90
2019-04-24T04:16:56.688Z,50.90
2019-04-24T04:19:32.361Z,50.90
2019-04-24T04:22:07.379Z,50.90
2019-04-24T04:27:25.326Z,50.90
2019-04-24T04:32:57.800Z,50.90
2019-04-24T04:35:45.168Z,50.90
2019-04-24T04:40:45.596Z,51.00
2019-04-24T04:48:32.774Z,50.90
2019-04-24T04:56:29.063Z,51.00
2019-04-24T04:58:57.792Z,50.90
2019-04-24T05:04:37.195Z,50.90
2019-04-24T05:07:21.643Z,50.90
2019-04-24T05:09:43.619Z,50.90
2019-04-24T05:17:01.982Z,50.80
2019-04-24T05:22:02.126Z,50.90
2019-04-24T05:35:14.299Z,51.00
2019-04-24T05:40:32.910Z,51.00
2019-04-24T05:45:32.724Z,50.60
2019-04-24T05:53:30.373Z,50.90
2019-04-24T06:01:21.213Z,50.90
2019-04-24T06:09:14.660Z,50.90
2019-04-24T06:14:14.788Z,50.90
2019-04-24T06:17:12.456Z,50.90
2019-04-24T06:19:59.831Z,50.90
2019-04-24T06:22:22.528Z,51.00
2019-04-24T06:24:42.791Z,51.00
2019-04-24T06:27:35.279Z,50.90
2019-04-24T06:35:35.088Z,50.90
2019-04-24T06:37:55.271Z,51.00
2019-04-24T06:43:08.528Z,51.00
2019-04-24T06:45:42.309Z,51.00
2019-04-24T06:53:07.172Z,51.00
2019-04-24T06:58:16.348Z,50.90
2019-04-24T07:00:58.101Z,50.90
2019-04-24T07:06:22.731Z,50.90
2019-04-24T07:09:03.816Z,50.90
2019-04-24T07:14:24.831Z,50.90
2019-04-24T07:19:37.624Z,51.00
2019-04-24T07:21:59.288Z,50.90
2019-04-24T07:26:59.445Z,50.90
2019-04-24T07:29:36.696Z,50.90
2019-04-24T07:32:23.655Z,51.00
2019-04-24T07:37:28.961Z,50.90
2019-04-24T07:39:50.390Z,51.50
2019-04-24T07:44:43.954Z,50.90
2019-04-24T07:47:14.734Z,50.90
2019-04-24T07:49:49.307Z,50.90
2019-04-24T07:52:40.545Z,50.90
2019-04-24T08:00:11.315Z,50.90
2019-04-24T08:02:46.244Z,50.90
2019-04-24T08:10:45.191Z,50.90
2019-04-24T08:13:05.400Z,50.70
2019-04-24T08:15:34.231Z,50.90
2019-04-24T08:23:08.799Z,50.90
2019-04-24T08:25:39.056Z,50.90
2019-04-24T08:28:07.356Z,51.00
2019-04-24T08:30:43.111Z,51.00
2019-04-24T08:33:07.314Z,50.90
2019-04-24T08:35:54.969Z,50.90
2019-04-24T08:43:27.532Z,50.90
2019-04-24T08:51:34.198Z,50.90
2019-04-24T08:56:18.219Z,50.90
2019-04-24T09:01:45.005Z,50.90
2019-04-24T09:06:44.557Z,50.90
2019-04-24T09:09:26.188Z,50.90
2019-04-24T09:12:38.927Z,50.90
2019-04-24T09:14:42.339Z,50.90
2019-04-24T09:17:20.744Z,50.90
2019-04-24T09:20:00.896Z,51.00
2019-04-24T09:22:25.909Z,50.90
2019-04-24T09:25:29.537Z,50.90
2019-04-24T09:28:15.640Z,50.90
2019-04-24T09:30:53.791Z,50.90
2019-04-24T09:33:32.460Z,50.90
2019-04-24T09:38:43.353Z,50.90
2019-04-24T09:41:32.490Z,50.90
2019-04-24T09:43:53.859Z,50.90
2019-04-24T09:46:12.931Z,50.90
2019-04-24T09:54:00.007Z,50.90
2019-04-24T09:56:37.892Z,50.90
2019-04-24T10:02:29.768Z,51.00
2019-04-24T10:09:50.269Z,51.00
2019-04-24T10:14:52.013Z,50.90
2019-04-24T10:20:05.854Z,50.90
2019-04-24T10:25:18.724Z,50.90
2019-04-24T10:28:21.537Z,51.00
2019-04-24T10:31:02.508Z,51.00
2019-04-24T10:33:51.386Z,51.00
2019-04-24T10:36:40.055Z,50.90
2019-04-24T10:39:16.734Z,50.90
2019-04-24T10:42:02.780Z,50.90
2019-04-24T10:44:46.016Z,51.00
2019-04-24T10:52:46.094Z,51.00
2019-04-24T10:55:15.281Z,51.00
2019-04-24T10:57:56.886Z,51.10
2019-04-24T11:00:17.059Z,51.00
2019-04-24T11:03:04.925Z,50.90
2019-04-24T11:08:30.362Z,50.90
2019-04-24T11:11:01.695Z,51.00
2019-04-24T11:14:17.508Z,51.00
2019-04-24T11:20:07.576Z,51.30
2019-04-24T11:28:32.888Z,51.40
2019-04-24T11:30:54.856Z,51.20
2019-04-24T11:33:50.824Z,51.20
2019-04-24T11:36:41.272Z,51.30
2019-04-24T11:39:09.154Z,51.30
2019-04-24T11:41:41.260Z,51.30
2019-04-24T11:47:21.661Z,51.40
2019-04-24T11:53:03.103Z,51.40
2019-04-24T11:55:24.307Z,51.50
2019-04-24T12:00:25.923Z,51.40
2019-04-24T12:03:30.782Z,51.40
2019-04-24T12:08:49.078Z,51.40
2019-04-24T12:11:19.882Z,51.30
2019-04-24T12:14:11.360Z,51.40
2019-04-24T12:16:46.893Z,51.40
2019-04-24T12:19:36.336Z,51.40
2019-04-24T12:22:03.842Z,51.30
2019-04-24T12:24:29.290Z,51.30
2019-04-24T12:26:57.574Z,51.30
2019-04-24T12:29:37.343Z,51.30
2019-04-24T12:35:17.812Z,51.30
2019-04-24T12:37:37.642Z,51.30
2019-04-24T12:45:41.927Z,51.30
2019-04-24T12:50:34.722Z,51.20
2019-04-24T12:53:00.372Z,51.20
2019-04-24T12:56:07.994Z,51.20
2019-04-24T12:58:58.511Z,51.20
2019-04-24T13:01:27.687Z,51.20
2019-04-24T13:06:25.826Z,51.30
2019-04-24T13:09:21.932Z,51.20
2019-04-24T13:11:40.421Z,51.30
2019-04-24T13:14:47.835Z,51.30
2019-04-24T13:21:45.454Z,51.20
2019-04-24T13:24:33.931Z,51.20
2019-04-24T13:27:16.978Z,51.20
2019-04-24T13:29:58.995Z,51.20
2019-04-24T13:32:26.069Z,51.20
2019-04-24T13:35:06.448Z,51.20
2019-04-24T13:37:52.386Z,51.20
2019-04-24T13:40:28.062Z,51.20
2019-04-24T13:42:39.476Z,51.20
2019-04-24T13:45:08.103Z,51.20
2019-04-24T13:47:55.841Z,51.20
2019-04-24T13:50:10.630Z,51.20
2019-04-24T13:55:13.173Z,51.20
2019-04-24T13:57:44.288Z,51.10
2019-04-24T14:00:17.443Z,51.10
2019-04-24T14:03:01.396Z,51.10
2019-04-24T14:05:11.080Z,51.10
2019-04-24T14:15:09.649Z,51.10
2019-04-24T14:17:43.659Z,51.10
2019-04-24T14:25:44.025Z,51.20
2019-04-24T14:33:13.460Z,51.10
2019-04-24T14:35:50.188Z,51.10
2019-04-24T14:38:20.607Z,51.10
2019-04-24T14:43:13.432Z,51.10
2019-04-24T14:48:07.818Z,51.10
2019-04-24T14:50:32.410Z,51.10
2019-04-24T14:53:03.232Z,51.10
2019-04-24T14:55:35.570Z,51.10
2019-04-24T14:58:03.731Z,51.10
2019-04-24T15:03:03.542Z,51.10
2019-04-24T15:05:52.959Z,51.10
2019-04-24T15:10:41.215Z,51.10
2019-04-24T15:13:13.818Z,51.10
2019-04-24T15:18:42.166Z,51.30
2019-04-24T15:23:20.233Z,51.10
2019-04-24T15:25:57.078Z,51.10
2019-04-24T15:28:25.392Z,51.10
2019-04-24T15:33:18.886Z,51.10
2019-04-24T15:35:46.060Z,51.10
2019-04-24T15:41:09.560Z,51.10
2019-04-24T15:43:17.752Z,51.10
2019-04-24T15:45:46.636Z,51.10
2019-04-24T15:48:34.993Z,51.10
2019-04-24T15:50:49.780Z,51.10
2019-04-24T15:52:42.457Z,51.10
2019-04-24T15:55:15.308Z,51.10
2019-04-24T15:57:43.822Z,51.10
2019-04-24T16:00:47.746Z,51.10
2019-04-24T16:03:31.848Z,51.10
2019-04-24T16:05:15.277Z,51.10
2019-04-24T16:07:49.045Z,51.10
2019-04-24T16:10:26.180Z,51.10
2019-04-24T16:12:53.489Z,51.10
2019-04-24T16:15:58.709Z,51.10
2019-04-24T16:18:45.821Z,51.10
2019-04-24T16:23:28.962Z,51.10
2019-04-24T16:25:52.305Z,51.10
2019-04-24T16:28:16.134Z,51.10
2019-04-24T16:30:46.570Z,51.10
2019-04-24T16:33:32.680Z,51.60
2019-04-24T16:38:18.309Z,51.10
2019-04-24T16:41:17.615Z,51.10
2019-04-24T16:43:20.197Z,51.10
2019-04-24T16:46:33.828Z,51.10
2019-04-24T16:51:10.145Z,51.10
2019-04-24T16:53:29.424Z,51.10
2019-04-24T16:55:50.068Z,51.10
2019-04-24T17:01:24.697Z,51.10
2019-04-24T17:06:11.345Z,51.10
2019-04-24T17:08:45.443Z,51.70
2019-04-24T17:11:14.173Z,51.10
2019-04-24T17:13:26.053Z,51.10
2019-04-24T17:16:12.656Z,51.10
2019-04-24T17:18:57.821Z,51.10
2019-04-24T17:24:05.849Z,51.10
2019-04-24T17:26:19.471Z,51.40
2019-04-24T17:29:32.263Z,51.90
2019-04-24T17:32:04.143Z,52.00
2019-04-24T17:34:31.341Z,52.00
2019-04-24T17:36:31.812Z,52.00
2019-04-24T17:39:12.456Z,51.90
2019-04-24T17:41:49.048Z,51.80
2019-04-24T17:44:57.329Z,51.90
2019-04-24T17:49:59.206Z,51.90
2019-04-24T17:54:36.536Z,51.90
2019-04-24T17:57:15.831Z,51.90
2019-04-24T17:59:10.512Z,51.90
2019-04-24T18:01:42.553Z,51.90
2019-04-24T18:04:12.173Z,52.00
2019-04-24T18:06:42.329Z,52.00
2019-04-24T18:09:11.508Z,52.00
2019-04-24T18:11:39.745Z,52.50
2019-04-24T18:14:08.731Z,52.00
2019-04-24T18:16:36.353Z,52.00
2019-04-24T18:19:04.607Z,52.00
2019-04-24T18:21:32.323Z,52.00
2019-04-24T18:24:01.174Z,52.00
2019-04-24T18:26:48.485Z,52.00
2019-04-24T18:29:16.096Z,52.00
2019-04-24T18:31:44.560Z,52.10
2019-04-24T18:34:13.994Z,52.10
2019-04-24T18:36:42.555Z,52.10
2019-04-24T18:39:10.655Z,52.10
2019-04-24T18:41:40.621Z,52.10
2019-04-24T18:44:08.345Z,52.00
2019-04-24T18:46:35.929Z,52.10
2019-04-24T18:49:04.414Z,52.10
2019-04-24T18:51:32.960Z,52.10
2019-04-24T18:54:01.235Z,52.10
2019-04-24T18:56:28.921Z,52.10
2019-04-24T18:58:56.406Z,52.60
2019-04-24T19:01:23.981Z,52.10
2019-04-24T19:03:52.084Z,52.00
2019-04-24T19:06:30.694Z,52.00
2019-04-24T19:08:48.843Z,52.00
2019-04-24T19:11:16.190Z,52.00
2019-04-24T19:16:41.970Z,52.00
2019-04-24T19:19:10.071Z,52.10
2019-04-24T19:21:37.453Z,52.10
2019-04-24T19:24:06.142Z,52.00
2019-04-24T19:26:33.537Z,52.00
2019-04-24T19:29:00.936Z,52.00
2019-04-24T19:31:28.244Z,52.00
2019-04-24T19:33:55.569Z,52.00
2019-04-24T19:36:22.888Z,52.00
2019-04-24T19:38:51.647Z,52.00
2019-04-24T19:41:19.038Z,52.10
2019-04-24T19:43:46.360Z,52.10
2019-04-24T19:46:16.742Z,52.00
2019-04-24T19:48:43.844Z,52.00
2019-04-24T19:51:11.312Z,52.00
2019-04-24T19:53:39.104Z,51.90
2019-04-24T19:56:06.376Z,51.90
2019-04-24T19:58:33.892Z,51.90
2019-04-24T20:01:02.918Z,52.00
2019-04-24T20:03:31.962Z,51.90
2019-04-24T20:06:01.995Z,51.90
2019-04-24T20:08:29.417Z,51.90
2019-04-24T20:11:29.172Z,51.90
2019-04-24T20:13:59.165Z,52.00
2019-04-24T20:16:25.710Z,52.00
2019-04-24T20:18:53.024Z,52.00
2019-04-24T20:21:21.575Z,51.80
2019-04-24T20:23:49.564Z,52.40
2019-04-24T20:26:17.419Z,51.80
2019-04-24T20:28:46.009Z,51.80
2019-04-24T20:31:14.223Z,51.80
2019-04-24T20:33:42.859Z,51.80
2019-04-24T20:36:11.395Z,51.90
2019-04-24T20:38:41.958Z,51.80
2019-04-24T20:41:09.361Z,51.80
2019-04-24T20:43:36.675Z,51.80
2019-04-24T20:46:03.993Z,51.80
2019-04-24T20:48:33.025Z,51.80
2019-04-24T20:51:00.752Z,51.90
2019-04-24T20:53:39.357Z,51.80
2019-04-24T20:55:57.222Z,51.80
2019-04-24T20:58:25.307Z,51.80
2019-04-24T21:00:54.436Z,51.80
2019-04-24T21:03:23.630Z,51.80
2019-04-24T21:06:10.495Z,51.80
2019-04-24T21:08:50.029Z,51.80
2019-04-24T21:11:17.353Z,51.80
2019-04-24T21:13:44.751Z,51.90
2019-04-24T21:16:12.347Z,51.80
2019-04-24T21:18:39.823Z,51.80
2019-04-24T21:21:07.348Z,52.30
2019-04-24T21:23:34.675Z,51.80
2019-04-24T21:26:01.985Z,51.80
2019-04-24T21:28:29.350Z,51.70
2019-04-24T21:30:56.657Z,51.80
2019-04-24T21:33:24.105Z,51.70
2019-04-24T21:35:52.248Z,51.70
2019-04-24T21:40:35.952Z,51.70
2019-04-24T21:43:03.496Z,51.80
2019-04-24T21:45:31.783Z,51.80
2019-04-24T21:47:59.452Z,51.70
2019-04-24T21:50:26.760Z,51.70
2019-04-24T21:52:54.072Z,51.80
2019-04-24T21:55:21.493Z,51.70
2019-04-24T21:58:02.176Z,51.70
2019-04-24T22:00:51.588Z,51.70
2019-04-24T22:03:34.116Z,52.30
2019-04-24T22:06:01.397Z,51.70
2019-04-24T22:08:29.037Z,51.80
2019-04-24T22:10:56.536Z,51.70
2019-04-24T22:13:25.000Z,51.80
2019-04-24T22:15:52.737Z,51.80
2019-04-24T22:18:22.051Z,51.70
2019-04-24T22:20:52.840Z,51.70
2019-04-24T22:23:41.375Z,51.70
2019-04-24T22:26:08.967Z,51.70
2019-04-24T22:28:36.500Z,51.70
2019-04-24T22:31:34.933Z,51.70
2019-04-24T22:34:12.179Z,51.70
2019-04-24T22:36:39.540Z,51.70
2019-04-24T22:39:25.169Z,51.70
2019-04-24T22:41:52.792Z,51.70
2019-04-24T22:44:20.132Z,51.70
2019-04-24T22:46:47.576Z,51.70
2019-04-24T22:49:15.093Z,51.70
2019-04-24T22:51:42.401Z,51.70
2019-04-24T22:54:09.761Z,51.70
2019-04-24T22:56:45.438Z,52.20
2019-04-24T22:59:06.238Z,51.60
2019-04-24T23:01:34.471Z,51.60
2019-04-24T23:04:03.069Z,51.60
2019-04-24T23:06:32.134Z,51.60
2019-04-24T23:08:59.621Z,51.60
2019-04-24T23:11:26.977Z,51.60
2019-04-24T23:13:54.290Z,51.70
2019-04-24T23:16:22.372Z,51.60
2019-04-24T23:18:51.852Z,51.60
2019-04-24T23:21:38.003Z,51.60
2019-04-24T23:24:22.144Z,51.60
2019-04-24T23:27:07.544Z,51.60
2019-04-24T23:29:43.907Z,51.60
2019-04-24T23:32:21.289Z,51.60
2019-04-24T23:34:51.336Z,52.20
2019-04-24T23:37:18.997Z,51.60
2019-04-24T23:39:46.573Z,51.60
2019-04-24T23:42:15.108Z,51.60
2019-04-24T23:44:43.430Z,51.60
2019-04-24T23:47:10.800Z,51.60
2019-04-24T23:49:39.273Z,51.50
2019-04-24T23:52:06.716Z,51.50
2019-04-24T23:54:34.035Z,51.50
2019-04-24T23:57:01.848Z,51.60
2019-04-24T23:59:29.253Z,51.50
